createdAt,value
2023-01-18T00:01:21.510Z,13.63
2023-01-18T00:03:49.511Z,13.80
2023-01-18T00:06:18.018Z,14.35
2023-01-18T00:08:45.890Z,14.63
2023-01-18T00:11:16.945Z,14.82
2023-01-18T00:13:45.097Z,13.45
2023-01-18T00:16:19.490Z,14.00
2023-01-18T00:18:58.754Z,13.98
2023-01-18T00:21:27.928Z,14.40
2023-01-18T00:23:56.730Z,14.18
2023-01-18T00:26:24.339Z,15.25
2023-01-18T00:28:52.142Z,14.63
2023-01-18T00:31:21.558Z,13.85
2023-01-18T00:33:50.536Z,14.57
2023-01-18T00:36:19.287Z,13.75
2023-01-18T00:38:54.027Z,14.82
2023-01-18T00:41:22.835Z,15.10
2023-01-18T00:43:51.588Z,15.27
2023-01-18T00:46:27.407Z,14.57
2023-01-18T00:48:57.301Z,14.43
2023-01-18T00:51:26.083Z,16.02
2023-01-18T00:53:54.037Z,15.98
2023-01-18T00:56:23.312Z,17.17
2023-01-18T00:58:51.448Z,16.48
2023-01-18T01:01:19.248Z,16.15
2023-01-18T01:04:05.302Z,15.25
2023-01-18T01:06:45.443Z,16.88
2023-01-18T01:09:39.547Z,16.55
2023-01-18T01:12:25.648Z,16.90
2023-01-18T01:15:11.744Z,17.52
2023-01-18T01:17:57.917Z,15.90
2023-01-18T01:20:45.434Z,16.08
2023-01-18T01:23:44.567Z,15.18
2023-01-18T01:26:12.248Z,15.05
2023-01-18T01:28:50.854Z,15.93
2023-01-18T01:31:22.193Z,16.33
2023-01-18T01:33:52.824Z,16.20
2023-01-18T01:36:28.752Z,16.60
2023-01-18T01:39:03.255Z,17.40
2023-01-18T01:41:35.779Z,18.25
2023-01-18T01:44:20.377Z,17.77
2023-01-18T01:46:57.032Z,15.63
2023-01-18T01:49:36.041Z,16.25
2023-01-18T01:54:58.116Z,16.10
2023-01-18T01:57:33.533Z,15.77
2023-01-18T02:00:08.796Z,16.35
2023-01-18T02:02:47.046Z,16.50
2023-01-18T02:05:17.499Z,16.80
2023-01-18T02:07:45.767Z,16.02
2023-01-18T02:10:13.903Z,17.08
2023-01-18T02:12:44.854Z,16.35
2023-01-18T02:15:13.520Z,15.50
2023-01-18T02:18:08.864Z,17.63
2023-01-18T02:21:02.630Z,17.98
2023-01-18T02:24:10.234Z,16.63
2023-01-18T02:27:04.007Z,17.83
2023-01-18T02:29:54.189Z,15.93
2023-01-18T02:33:08.857Z,16.83
2023-01-18T02:35:57.458Z,17.77
2023-01-18T02:38:34.480Z,17.15
2023-01-18T02:41:14.299Z,18.55
2023-01-18T02:44:02.905Z,20.08
2023-01-18T02:46:35.492Z,18.92
2023-01-18T02:49:09.880Z,19.73
2023-01-18T02:51:38.524Z,18.52
2023-01-18T02:54:09.849Z,20.27
2023-01-18T02:56:51.368Z,18.63
2023-01-18T02:59:40.924Z,17.75
2023-01-18T03:02:19.734Z,20.60
2023-01-18T03:04:56.316Z,21.40
2023-01-18T03:07:28.648Z,20.80
2023-01-18T03:09:58.789Z,20.52
2023-01-18T03:12:45.998Z,22.63
2023-01-18T03:15:45.185Z,21.48
2023-01-18T03:21:08.469Z,19.52
2023-01-18T03:23:42.326Z,20.10
2023-01-18T03:26:19.679Z,20.70
2023-01-18T03:29:12.860Z,18.92
2023-01-18T03:32:05.401Z,19.67
2023-01-18T03:35:08.016Z,18.98
2023-01-18T03:37:43.789Z,17.20
2023-01-18T03:40:23.784Z,17.42
2023-01-18T03:43:08.625Z,17.52
2023-01-18T03:45:46.086Z,17.63
2023-01-18T03:48:14.821Z,17.73
2023-01-18T03:51:00.965Z,16.70
2023-01-18T03:53:35.134Z,15.55
2023-01-18T03:56:18.186Z,16.60
2023-01-18T03:58:49.468Z,15.82
2023-01-18T04:01:17.452Z,16.98
2023-01-18T04:03:45.087Z,17.67
2023-01-18T04:06:12.895Z,15.80
2023-01-18T04:08:40.620Z,15.02
2023-01-18T04:11:08.407Z,14.65
2023-01-18T04:13:36.351Z,14.68
2023-01-18T04:16:05.917Z,15.70
2023-01-18T04:18:33.787Z,14.65
2023-01-18T04:21:01.464Z,15.63
2023-01-18T04:23:29.192Z,15.55
2023-01-18T04:25:56.804Z,16.85
2023-01-18T04:28:26.968Z,16.05
2023-01-18T04:30:56.994Z,16.80
2023-01-18T04:33:26.722Z,19.08
2023-01-18T04:35:54.444Z,17.35
2023-01-18T04:38:23.304Z,17.58
2023-01-18T04:40:51.233Z,17.13
2023-01-18T04:43:19.206Z,16.63
2023-01-18T04:45:56.921Z,17.90
2023-01-18T04:48:28.096Z,18.80
2023-01-18T04:50:56.339Z,18.75
2023-01-18T04:53:24.390Z,13.33
2023-01-18T04:55:52.048Z,19.42
2023-01-18T04:58:19.824Z,17.63
2023-01-18T05:00:47.532Z,19.80
2023-01-18T05:03:16.123Z,18.30
2023-01-18T05:05:43.865Z,20.05
2023-01-18T05:08:11.686Z,19.25
2023-01-18T05:10:39.491Z,18.58
2023-01-18T05:13:32.674Z,17.77
2023-01-18T05:16:02.575Z,17.95
2023-01-18T05:18:32.187Z,15.65
2023-01-18T05:21:00.124Z,16.88
2023-01-18T05:23:27.750Z,17.40
2023-01-18T05:25:57.009Z,16.50
2023-01-18T05:28:27.162Z,16.42
2023-01-18T05:30:55.746Z,17.92
2023-01-18T05:33:23.891Z,17.65
2023-01-18T05:35:54.160Z,16.90
2023-01-18T05:38:23.643Z,17.17
2023-01-18T05:40:54.174Z,16.23
2023-01-18T05:43:26.291Z,15.85
2023-01-18T05:45:54.764Z,16.50
2023-01-18T05:48:24.041Z,15.88
2023-01-18T05:50:52.271Z,16.98
2023-01-18T05:53:22.492Z,15.87
2023-01-18T05:56:01.881Z,14.85
2023-01-18T05:58:29.976Z,14.45
2023-01-18T06:00:58.500Z,13.40
2023-01-18T06:03:26.234Z,12.60
2023-01-18T06:05:54.012Z,11.82
2023-01-18T06:08:21.904Z,10.65
2023-01-18T06:10:55.486Z,10.63
2023-01-18T06:13:25.083Z,9.35
2023-01-18T06:15:54.620Z,9.85
2023-01-18T06:18:24.014Z,11.10
2023-01-18T06:20:59.645Z,10.25
2023-01-18T06:23:29.949Z,10.30
2023-01-18T06:25:57.972Z,9.55
2023-01-18T06:28:26.180Z,9.15
2023-01-18T06:30:56.455Z,8.98
2023-01-18T06:33:24.822Z,9.23
2023-01-18T06:35:52.739Z,9.05
2023-01-18T06:38:21.442Z,9.43
2023-01-18T06:40:49.596Z,9.07
2023-01-18T06:43:17.430Z,10.82
2023-01-18T06:45:47.469Z,9.95
2023-01-18T06:48:15.744Z,9.88
2023-01-18T06:50:43.546Z,9.55
2023-01-18T06:53:11.352Z,9.57
2023-01-18T06:55:39.070Z,9.75
2023-01-18T06:58:09.651Z,9.82
2023-01-18T07:00:37.553Z,9.55
2023-01-18T07:03:05.266Z,9.93
2023-01-18T07:05:32.964Z,9.10
2023-01-18T07:08:03.210Z,9.68
2023-01-18T07:10:31.309Z,9.80
2023-01-18T07:12:59.339Z,9.75
2023-01-18T07:15:27.175Z,9.77
2023-01-18T07:17:54.826Z,9.05
2023-01-18T07:20:23.314Z,9.48
2023-01-18T07:22:52.583Z,8.75
2023-01-18T07:25:20.713Z,8.15
2023-01-18T07:27:49.086Z,8.83
2023-01-18T07:30:17.496Z,8.82
2023-01-18T07:32:51.453Z,8.98
2023-01-18T07:35:22.480Z,10.60
2023-01-18T07:37:53.038Z,9.77
2023-01-18T07:40:23.927Z,11.52
2023-01-18T07:42:58.436Z,10.90
2023-01-18T07:45:26.368Z,12.48
2023-01-18T07:47:54.418Z,14.02
2023-01-18T07:50:22.488Z,12.73
2023-01-18T07:52:50.341Z,14.60
2023-01-18T07:55:18.192Z,14.63
2023-01-18T07:57:45.848Z,15.52
2023-01-18T08:00:14.824Z,14.75
2023-01-18T08:02:42.524Z,16.13
2023-01-18T08:05:10.927Z,16.42
2023-01-18T08:07:38.879Z,15.88
2023-01-18T08:10:06.951Z,16.30
2023-01-18T08:12:34.795Z,15.33
2023-01-18T08:15:02.476Z,15.00
2023-01-18T08:17:30.801Z,14.43
2023-01-18T08:19:58.325Z,14.38
2023-01-18T08:22:25.924Z,13.90
2023-01-18T08:24:53.632Z,14.23
2023-01-18T08:27:21.773Z,15.52
2023-01-18T08:29:49.358Z,18.10
2023-01-18T08:32:17.168Z,15.15
2023-01-18T08:34:44.946Z,15.85
2023-01-18T08:37:12.912Z,15.75
2023-01-18T08:39:40.549Z,14.30
2023-01-18T08:42:11.672Z,14.68
2023-01-18T08:44:39.402Z,16.27
2023-01-18T08:47:07.071Z,17.08
2023-01-18T08:49:37.490Z,14.88
2023-01-18T08:52:05.739Z,15.35
2023-01-18T08:54:33.740Z,14.27
2023-01-18T08:57:02.545Z,14.60
2023-01-18T08:59:30.296Z,13.95
2023-01-18T09:01:58.751Z,14.25
2023-01-18T09:04:29.447Z,14.25
2023-01-18T09:06:57.228Z,13.45
2023-01-18T09:09:24.989Z,14.30
2023-01-18T09:11:52.855Z,13.93
2023-01-18T09:14:20.870Z,14.73
2023-01-18T09:16:48.595Z,13.93
2023-01-18T09:19:16.425Z,13.63
2023-01-18T09:21:46.547Z,13.32
2023-01-18T09:24:14.366Z,13.55
2023-01-18T09:26:44.438Z,13.45
2023-01-18T09:29:13.009Z,14.52
2023-01-18T09:31:40.626Z,13.75
2023-01-18T09:34:18.786Z,14.30
2023-01-18T09:39:20.940Z,14.25
2023-01-18T09:42:04.642Z,14.23
2023-01-18T09:44:38.395Z,12.20
2023-01-18T09:47:34.237Z,11.18
2023-01-18T09:50:14.855Z,10.80
2023-01-18T09:53:23.877Z,12.07
2023-01-18T09:56:09.830Z,11.65
2023-01-18T09:58:54.641Z,12.52
2023-01-18T10:01:31.662Z,12.82
2023-01-18T10:04:22.492Z,12.07
2023-01-18T10:06:57.037Z,12.13
2023-01-18T10:09:36.823Z,12.10
2023-01-18T10:12:34.741Z,11.18
2023-01-18T10:15:22.186Z,10.30
2023-01-18T10:17:56.161Z,9.55
2023-01-18T10:20:35.563Z,9.32
2023-01-18T10:23:19.698Z,8.98
2023-01-18T10:26:09.637Z,10.32
2023-01-18T10:28:55.220Z,9.90
2023-01-18T10:31:37.759Z,10.73
2023-01-18T10:34:22.370Z,10.48
2023-01-18T10:37:14.468Z,10.13
2023-01-18T10:39:51.941Z,8.85
2023-01-18T10:42:49.309Z,8.57
2023-01-18T10:45:21.582Z,9.18
2023-01-18T10:47:52.295Z,8.80
2023-01-18T10:50:45.153Z,8.77
2023-01-18T10:53:37.612Z,8.68
2023-01-18T10:56:10.747Z,8.70
2023-01-18T10:58:50.327Z,8.82
2023-01-18T11:01:23.747Z,8.57
2023-01-18T11:04:08.244Z,8.32
2023-01-18T11:06:56.809Z,7.95
2023-01-18T11:09:48.752Z,8.65
2023-01-18T11:12:38.787Z,9.23
2023-01-18T11:15:18.931Z,9.77
2023-01-18T11:18:02.078Z,9.43
2023-01-18T11:20:49.976Z,10.13
2023-01-18T11:23:25.735Z,8.25
2023-01-18T11:25:56.628Z,7.53
2023-01-18T11:28:39.247Z,6.57
2023-01-18T11:31:15.103Z,7.63
2023-01-18T11:34:03.186Z,7.40
2023-01-18T11:36:44.822Z,7.65
2023-01-18T11:39:36.703Z,7.88
2023-01-18T11:42:22.361Z,7.85
2023-01-18T11:44:57.885Z,7.90
2023-01-18T11:47:44.388Z,9.40
2023-01-18T11:50:29.880Z,8.88
2023-01-18T11:53:21.758Z,8.80
2023-01-18T11:56:06.480Z,8.45
2023-01-18T11:58:36.434Z,7.32
2023-01-18T12:01:43.369Z,8.65
2023-01-18T12:04:43.915Z,8.63
2023-01-18T12:07:39.530Z,8.38
2023-01-18T12:10:20.783Z,8.32
2023-01-18T12:13:22.914Z,8.90
2023-01-18T12:16:24.933Z,7.90
2023-01-18T12:19:04.402Z,7.43
2023-01-18T12:22:19.596Z,7.28
2023-01-18T12:25:01.380Z,6.93
2023-01-18T12:27:53.041Z,6.43
2023-01-18T12:31:03.026Z,6.68
2023-01-18T12:33:54.460Z,6.80
2023-01-18T12:36:40.073Z,6.63
2023-01-18T12:39:28.987Z,6.53
2023-01-18T12:42:49.951Z,6.72
2023-01-18T12:45:41.987Z,6.32
2023-01-18T12:48:16.699Z,6.28
2023-01-18T12:50:49.944Z,6.27
2023-01-18T12:53:40.304Z,6.90
2023-01-18T12:56:22.448Z,6.03
2023-01-18T12:59:00.788Z,6.53
2023-01-18T13:01:37.712Z,6.47
2023-01-18T13:04:26.523Z,5.88
2023-01-18T13:07:02.568Z,6.93
2023-01-18T13:09:38.947Z,6.63
2023-01-18T13:12:07.533Z,6.40
2023-01-18T13:15:01.720Z,7.30
2023-01-18T13:17:56.362Z,6.47
2023-01-18T13:20:48.356Z,7.10
2023-01-18T13:23:56.669Z,6.30
2023-01-18T13:26:34.074Z,5.68
2023-01-18T13:29:17.078Z,6.10
2023-01-18T13:31:46.039Z,5.53
2023-01-18T13:34:47.770Z,7.80
2023-01-18T13:37:48.635Z,7.57
2023-01-18T13:40:36.711Z,6.05
2023-01-18T13:43:29.895Z,5.57
2023-01-18T13:46:09.899Z,5.68
2023-01-18T13:49:36.223Z,6.32
2023-01-18T13:52:32.556Z,6.05
2023-01-18T13:55:25.048Z,5.93
2023-01-18T13:57:56.505Z,7.05
2023-01-18T14:00:26.189Z,6.70
2023-01-18T14:03:04.739Z,8.10
2023-01-18T14:05:45.756Z,8.65
2023-01-18T14:08:22.824Z,6.40
2023-01-18T14:10:57.152Z,5.22
2023-01-18T14:13:49.982Z,6.90
2023-01-18T14:16:25.514Z,6.50
2023-01-18T14:19:12.722Z,6.47
2023-01-18T14:22:25.163Z,5.65
2023-01-18T14:25:24.949Z,6.57
2023-01-18T14:28:08.396Z,6.47
2023-01-18T14:30:39.041Z,5.45
2023-01-18T14:33:23.694Z,8.02
2023-01-18T14:36:01.567Z,5.30
2023-01-18T14:38:30.728Z,4.28
2023-01-18T14:41:07.055Z,4.80
2023-01-18T14:43:49.318Z,6.45
2023-01-18T14:46:24.753Z,6.43
2023-01-18T14:48:57.265Z,6.35
2023-01-18T14:51:32.100Z,6.05
2023-01-18T14:54:02.893Z,4.97
2023-01-18T14:56:34.761Z,5.63
2023-01-18T14:59:21.492Z,6.75
2023-01-18T15:02:14.857Z,5.75
2023-01-18T15:04:46.550Z,5.72
2023-01-18T15:07:22.878Z,5.40
2023-01-18T15:09:51.093Z,5.45
2023-01-18T15:12:28.979Z,6.40
2023-01-18T15:15:13.627Z,5.65
2023-01-18T15:17:46.760Z,5.65
2023-01-18T15:20:15.808Z,5.75
2023-01-18T15:25:30.226Z,5.22
2023-01-18T15:28:18.435Z,5.03
2023-01-18T15:30:56.182Z,5.55
2023-01-18T15:33:27.114Z,5.50
2023-01-18T15:35:59.442Z,5.60
2023-01-18T15:38:29.006Z,5.70
2023-01-18T15:41:11.140Z,5.80
2023-01-18T15:43:44.599Z,5.97
2023-01-18T15:46:16.599Z,5.93
2023-01-18T15:48:58.047Z,5.25
2023-01-18T15:51:44.218Z,5.70
2023-01-18T15:54:26.777Z,5.45
2023-01-18T15:56:58.863Z,5.32
2023-01-18T15:59:28.091Z,5.28
2023-01-18T16:02:25.495Z,5.68
2023-01-18T16:05:21.791Z,4.90
2023-01-18T16:07:53.167Z,4.22
2023-01-18T16:10:30.276Z,4.47
2023-01-18T16:13:39.348Z,4.70
2023-01-18T16:18:52.344Z,4.22
2023-01-18T16:21:43.188Z,5.47
2023-01-18T16:24:36.436Z,4.40
2023-01-18T16:27:32.009Z,5.55
2023-01-18T16:30:14.792Z,5.35
2023-01-18T16:32:42.552Z,5.60
2023-01-18T16:35:15.936Z,5.70
2023-01-18T16:37:44.710Z,5.85
2023-01-18T16:40:22.931Z,5.28
2023-01-18T16:43:02.269Z,5.43
2023-01-18T16:45:34.038Z,4.65
2023-01-18T16:48:02.670Z,4.47
2023-01-18T16:50:31.005Z,5.00
2023-01-18T16:52:58.823Z,5.18
2023-01-18T16:55:27.251Z,5.20
2023-01-18T16:58:06.675Z,5.03
2023-01-18T17:01:10.202Z,4.93
2023-01-18T17:03:39.429Z,4.97
2023-01-18T17:06:07.436Z,4.90
2023-01-18T17:08:35.090Z,5.13
2023-01-18T17:11:02.909Z,7.20
2023-01-18T17:13:30.722Z,5.85
2023-01-18T17:15:58.610Z,5.60
2023-01-18T17:18:27.717Z,7.00
2023-01-18T17:23:25.587Z,6.25
2023-01-18T17:25:53.343Z,6.03
2023-01-18T17:28:20.907Z,7.35
2023-01-18T17:30:50.113Z,6.80
2023-01-18T17:33:24.956Z,8.15
2023-01-18T17:35:54.803Z,8.95
2023-01-18T17:38:25.054Z,9.15
2023-01-18T17:40:54.172Z,11.80
2023-01-18T17:43:33.290Z,11.20
2023-01-18T17:46:06.574Z,10.18
2023-01-18T17:48:34.879Z,11.07
2023-01-18T17:51:09.747Z,11.10
2023-01-18T17:53:39.845Z,10.45
2023-01-18T17:56:16.941Z,10.95
2023-01-18T17:58:49.414Z,11.75
2023-01-18T18:01:18.854Z,11.63
2023-01-18T18:03:49.666Z,11.35
2023-01-18T18:06:30.064Z,10.80
2023-01-18T18:09:00.148Z,16.58
2023-01-18T18:11:28.460Z,15.90
2023-01-18T18:13:56.794Z,13.93
2023-01-18T18:16:25.693Z,12.82
2023-01-18T18:18:53.804Z,12.23
2023-01-18T18:21:23.265Z,13.82
2023-01-18T18:23:51.358Z,12.85
2023-01-18T18:26:19.363Z,11.57
2023-01-18T18:28:47.304Z,12.23
2023-01-18T18:31:16.331Z,12.07
2023-01-18T18:33:44.137Z,14.98
2023-01-18T18:36:11.772Z,16.13
2023-01-18T18:38:42.000Z,18.05
2023-01-18T18:41:09.867Z,16.73
2023-01-18T18:43:37.489Z,16.00
2023-01-18T18:46:05.383Z,15.45
2023-01-18T18:48:33.182Z,14.77
2023-01-18T18:51:01.081Z,14.40
2023-01-18T18:53:37.513Z,13.68
2023-01-18T18:56:09.257Z,11.40
2023-01-18T18:58:39.517Z,12.15
2023-01-18T19:01:11.670Z,13.68
2023-01-18T19:03:39.452Z,11.77
2023-01-18T19:06:07.188Z,12.13
2023-01-18T19:08:34.982Z,11.88
2023-01-18T19:11:02.972Z,13.00
2023-01-18T19:13:30.823Z,15.07
2023-01-18T19:15:58.514Z,15.45
2023-01-18T19:18:31.754Z,14.48
2023-01-18T19:20:59.705Z,17.88
2023-01-18T19:23:28.302Z,16.63
2023-01-18T19:25:58.921Z,16.15
2023-01-18T19:28:26.688Z,18.17
2023-01-18T19:30:54.959Z,19.67
2023-01-18T19:33:22.572Z,15.95
2023-01-18T19:35:50.211Z,15.40
2023-01-18T19:38:17.963Z,14.32
2023-01-18T19:40:45.710Z,15.15
2023-01-18T19:43:13.373Z,17.92
2023-01-18T19:45:41.078Z,16.45
2023-01-18T19:48:08.744Z,16.30
2023-01-18T19:50:36.397Z,17.40
2023-01-18T19:53:04.220Z,18.52
2023-01-18T19:55:31.974Z,19.73
2023-01-18T19:58:01.595Z,19.13
2023-01-18T20:00:30.380Z,14.43
2023-01-18T20:03:00.004Z,10.50
2023-01-18T20:05:28.513Z,13.95
2023-01-18T20:07:56.854Z,14.23
2023-01-18T20:10:24.752Z,13.73
2023-01-18T20:12:52.758Z,13.95
2023-01-18T20:15:21.189Z,13.60
2023-01-18T20:17:48.918Z,14.27
2023-01-18T20:20:24.276Z,14.23
2023-01-18T20:23:02.598Z,18.90
2023-01-18T20:25:31.790Z,20.10
2023-01-18T20:30:27.269Z,11.75
2023-01-18T20:32:55.157Z,11.77
2023-01-18T20:35:22.952Z,9.35
2023-01-18T20:37:52.107Z,8.90
2023-01-18T20:42:47.822Z,8.38
2023-01-18T20:45:16.119Z,8.53
2023-01-18T20:47:44.811Z,7.75
2023-01-18T20:50:12.873Z,9.00
2023-01-18T20:52:41.924Z,8.18
2023-01-18T20:55:13.224Z,7.45
2023-01-18T20:57:41.238Z,8.35
2023-01-18T21:00:12.466Z,10.48
2023-01-18T21:02:43.489Z,9.65
2023-01-18T21:05:11.798Z,8.98
2023-01-18T21:07:41.694Z,9.43
2023-01-18T21:10:11.582Z,7.45
2023-01-18T21:12:41.185Z,8.27
2023-01-18T21:15:09.907Z,8.40
2023-01-18T21:17:37.751Z,7.38
2023-01-18T21:20:05.880Z,8.23
2023-01-18T21:22:33.659Z,7.68
2023-01-18T21:25:01.306Z,8.32
2023-01-18T21:27:29.059Z,8.10
2023-01-18T21:29:56.838Z,8.38
2023-01-18T21:32:24.703Z,8.70
2023-01-18T21:34:52.436Z,8.30
2023-01-18T21:37:20.065Z,8.68
2023-01-18T21:39:47.686Z,8.98
2023-01-18T21:42:33.593Z,8.10
2023-01-18T21:45:19.554Z,7.65
2023-01-18T21:47:47.438Z,8.05
2023-01-18T21:50:34.159Z,8.40
2023-01-18T21:53:20.449Z,7.65
2023-01-18T21:55:48.359Z,7.85
2023-01-18T21:58:35.105Z,8.18
2023-01-18T22:01:30.652Z,7.80
2023-01-18T22:04:21.141Z,8.57
2023-01-18T22:06:49.695Z,8.02
2023-01-18T22:09:17.684Z,8.35
2023-01-18T22:11:45.691Z,8.43
2023-01-18T22:14:13.791Z,8.98
2023-01-18T22:16:41.800Z,8.43
2023-01-18T22:19:11.771Z,7.80
2023-01-18T22:21:39.558Z,8.27
2023-01-18T22:24:07.633Z,8.30
2023-01-18T22:26:36.461Z,9.10
2023-01-18T22:29:04.751Z,8.35
2023-01-18T22:31:33.369Z,8.93
2023-01-18T22:34:02.114Z,10.07
2023-01-18T22:36:30.857Z,9.73
2023-01-18T22:38:58.832Z,9.82
2023-01-18T22:41:30.100Z,9.90
2023-01-18T22:43:57.745Z,10.00
2023-01-18T22:46:25.738Z,10.00
2023-01-18T22:48:53.433Z,9.77
2023-01-18T22:51:23.650Z,9.57
2023-01-18T22:53:52.195Z,10.45
2023-01-18T22:56:23.275Z,11.05
2023-01-18T22:58:52.032Z,10.25
2023-01-18T23:01:25.113Z,9.65
2023-01-18T23:03:55.993Z,10.27
2023-01-18T23:06:24.372Z,9.25
2023-01-18T23:08:54.289Z,10.35
2023-01-18T23:11:25.583Z,9.98
2023-01-18T23:14:15.817Z,8.70
2023-01-18T23:17:03.095Z,9.98
2023-01-18T23:19:31.232Z,9.20
2023-01-18T23:21:59.380Z,9.83
2023-01-18T23:24:27.710Z,9.60
2023-01-18T23:26:55.237Z,11.40
2023-01-18T23:29:22.979Z,9.30
2023-01-18T23:31:50.513Z,9.25
2023-01-18T23:34:18.153Z,10.05
2023-01-18T23:36:45.823Z,11.38
2023-01-18T23:39:32.135Z,9.75
2023-01-18T23:42:24.503Z,10.38
2023-01-18T23:45:10.604Z,10.57
2023-01-18T23:47:57.365Z,11.48
2023-01-18T23:50:44.173Z,12.00
2023-01-18T23:53:32.586Z,11.40
2023-01-18T23:56:00.617Z,11.15
2023-01-18T23:58:28.455Z,11.55
